Aérodrome :
LOGIN :

S'inscrire | Disclaimer

   EN    FR    IT 

 










Légende :    VFR   VFR Marginal   IFR   IFR Intensif   IFR Très Intensif
Visi : 
Plafond : 
>= 8 km
>= 3000ft
5 à 8 km
1000 à 3000 ft
1500m à 5 km
500 à 1000 ft
800 à 1500m
200 à 500 ft
< 800m
< 200 ft
Symboles :   Orages  Brouillard  Fortes neiges  Fortes précipitations  Vent > 20 kt
SIGMETs :   Divers  Orages  Givrage  Turbulence  Onde Orograph.  Cendres Volcan.






- Altitude de l'aérodrome : 75 ft
- Code IATA : MRH


EGYM - RAF Marham

DERNIER METAR :
  • 240450Z 32012KT 9999 BKN030 OVC050 05/02 Q1016 RMK BLU

METARs EXPIRÉS :
  • 240350Z 34011KT 9999 -RA FEW016 SCT020 OVC050 04/02 Q1017 RMK WHT
  • 240320Z AUTO 33007KT 9999 // FEW037/// BKN046/// 04/02 Q1017
  • 240250Z 35010KT 8000 -RA SCT016 OVC050 04/02 Q1017 RMK WHT
  • 240220Z AUTO 33013KT 9999 // OVC022/// 04/02 Q1018
  • 240120Z AUTO 32010KT 9999 -DZ FEW028/// OVC037/// 05/03 Q1018
  • 240050Z AUTO 35012KT 9999 // OVC015/// 05/03 Q1018
  • 240020Z AUTO 32011KT 9999 // OVC021/// 05/03 Q1019

Prévision TAF périmée.



MET'MAP, la Météo Aéronautique d'un coup d'oeil ! - Copyright ORBIFLY Décembre 2007 - Disclaimer

ORBIFLY MET'MAP TEAM :

Programmation & Développement : Alexandra Zaïnal
Sur une idée originale de : Baudouin d'Aumeries
Soutien technique & logistique : Manuel Goepfert
Assistance : Marc-Olivier Méhu




SOURCES & CREDITS :

   NOAA